Cape Cod — WBK3243 — position and weather

sailwx.info

Track history (hours):
 
Tides and Currents Weather Stations Pressure Air Temp Water Temp Dewpoint Dewpoint Depression Visibility Wind Speed Wind Dir Waves Ship Positions

Cape Cod

Owner: MORAN TOWING CORPORATION, New Canaan, CT. More information available from US FCC via Universal Licensing System and Coast Guard Vessel Documentation Center.

Last reported at 2017-Feb-27 13:33 UTC. Time now 2017-Feb-27 14:15 UTC.
Position N 39°53' W 075°11'.

Length 33 m; draft 4.8 m.

Type: Tug. MMSI: 366939770.

Date/timePositionNaut miles runAvg speedWind from/ knotsBaromVisibWave heightAir tempDewpointWater temp
2017-Feb-27 13:33N 39°53' W 075°11'0 0.0
2017-Feb-27 12:31N 39°53' W 075°11'0 0.0
2017-Feb-27 11:33N 39°53' W 075°11'7 6.6
2017-Feb-27 10:33N 39°51' W 075°19'9 8.5
2017-Feb-27 09:33N 39°46' W 075°28'1110.6
2017-Feb-27 08:33N 39°37' W 075°35'2 2.2
2017-Feb-27 07:33N 39°35' W 075°35'1 0.6
2017-Feb-27 06:33N 39°35' W 075°35'2 2.3
2017-Feb-27 05:33N 39°33' W 075°33'8 8.3
2017-Feb-27 04:33N 39°41' W 075°31'2 2.2
2017-Feb-27 03:33N 39°43' W 075°32'0 0.0
2017-Feb-27 02:33N 39°43' W 075°32'0 0.0
2017-Feb-27 01:33N 39°43' W 075°32'0 0.0
2017-Feb-27 00:33N 39°43' W 075°32'0 0.1
2017-Feb-26 23:33N 39°43' W 075°32'0 0.0
2017-Feb-26 22:33N 39°43' W 075°32'0 0.0
2017-Feb-26 21:33N 39°43' W 075°32'0 0.0
2017-Feb-26 20:33N 39°43' W 075°32'1 0.7
2017-Feb-26 19:33N 39°43' W 075°31'1 0.7
2017-Feb-26 18:33N 39°43' W 075°32'6 5.9
2017-Feb-26 17:33N 39°48' W 075°26'8 8.2
2017-Feb-26 16:32N 39°51' W 075°16'5 5.1
2017-Feb-26 15:33N 39°53' W 075°11'0 0.0
2017-Feb-26 14:33N 39°53' W 075°11'0 0.0
2017-Feb-26 13:32N 39°53' W 075°11'0 0.0
2017-Feb-26 12:33N 39°53' W 075°11'0 0.0
2017-Feb-26 11:33N 39°53' W 075°11'0 0.0
2017-Feb-26 10:33N 39°53' W 075°11'0 0.0
2017-Feb-26 09:33N 39°53' W 075°11'0 0.0
2017-Feb-26 08:33N 39°53' W 075°11'0 0.0
2017-Feb-26 07:33N 39°53' W 075°11'0 0.0
2017-Feb-26 06:33N 39°53' W 075°11'0 0.0
2017-Feb-26 05:33N 39°53' W 075°11'0 0.0
2017-Feb-26 04:33N 39°53' W 075°11'0 0.0
2017-Feb-26 03:33N 39°53' W 075°11'0 0.0
2017-Feb-26 02:33N 39°53' W 075°11'0 0.0
2017-Feb-26 01:33N 39°53' W 075°11'0 0.0
2017-Feb-26 00:33N 39°53' W 075°11'0 0.0
2017-Feb-25 23:33N 39°53' W 075°11'0 0.0
2017-Feb-25 22:33N 39°53' W 075°11'0 0.0
2017-Feb-25 21:33N 39°53' W 075°11'0 0.0
2017-Feb-25 20:33N 39°53' W 075°11'0 0.0
2017-Feb-25 19:33N 39°53' W 075°11'0 0.0
2017-Feb-25 18:33N 39°53' W 075°11'0 0.0
2017-Feb-25 17:33N 39°53' W 075°11'0 0.0
2017-Feb-25 16:33N 39°53' W 075°11'0 0.0
2017-Feb-25 15:33N 39°53' W 075°11'0 0.0
2017-Feb-25 14:33N 39°53' W 075°11'0 0.0
2017-Feb-25 13:33N 39°53' W 075°11'0 0.0
2017-Feb-25 12:33N 39°53' W 075°11'0 0.0
2017-Feb-25 11:33N 39°53' W 075°11'0 0.0
2017-Feb-25 10:33N 39°53' W 075°11'0 0.0
2017-Feb-25 09:33N 39°53' W 075°11'0 0.0
2017-Feb-25 08:33N 39°53' W 075°11'3 2.7
2017-Feb-25 07:33N 39°55' W 075°08'4 4.1
2017-Feb-25 06:33N 39°59' W 075°06'0 0.2
2017-Feb-25 05:33N 39°59' W 075°06'0 0.2
2017-Feb-25 04:33N 39°59' W 075°06'0 0.0
2017-Feb-25 03:33N 39°59' W 075°06'0 0.0
2017-Feb-25 02:33N 39°59' W 075°06'3 2.9
2017-Feb-25 01:33N 39°56' W 075°08'2 1.7
2017-Feb-25 00:33N 39°54' W 075°08'0 0.1
2017-Feb-24 23:33N 39°54' W 075°08'2 2.5
2017-Feb-24 22:33N 39°53' W 075°11'0 0.0
2017-Feb-24 21:33N 39°53' W 075°11'0 0.0
2017-Feb-24 20:33N 39°53' W 075°11'0 0.0
2017-Feb-24 19:33N 39°53' W 075°11'6 6.4
2017-Feb-24 18:33N 39°58' W 075°06'0 0.4
2017-Feb-24 17:33N 39°58' W 075°07'3 2.8
2017-Feb-24 16:33N 39°56' W 075°08'2 1.6
2017-Feb-24 15:33N 39°54' W 075°08'1 0.8
2017-Feb-24 14:33N 39°53' W 075°08'5 5.5
2017-Feb-24 13:33N 39°51' W 075°15'2 1.5
2017-Feb-24 12:33N 39°51' W 075°17'5 5.3
2017-Feb-24 11:33N 39°53' W 075°11'0 0.0
2017-Feb-24 10:33N 39°53' W 075°11'0 0.0
2017-Feb-24 09:33N 39°53' W 075°11'0 0.0
2017-Feb-24 08:33N 39°53' W 075°11'0 0.0
2017-Feb-24 07:33N 39°53' W 075°11'0 0.0
2017-Feb-24 06:33N 39°53' W 075°11'0 0.0
2017-Feb-24 05:33N 39°53' W 075°11'1 1.3
2017-Feb-24 04:33N 39°53' W 075°09'6 6.4
2017-Feb-24 03:33N 39°59' W 075°05'3 3.1
2017-Feb-24 02:33N 39°56' W 075°08'3 2.9
2017-Feb-24 01:33N 39°53' W 075°08'0 0.4
2017-Feb-24 00:33N 39°54' W 075°08'0 0.0
2017-Feb-23 23:33N 39°54' W 075°08'0 0.2
2017-Feb-23 22:33N 39°54' W 075°08'2 2.0
2017-Feb-23 21:33N 39°53' W 075°11'0 0.0
2017-Feb-23 20:32N 39°53' W 075°11'0 0.0
2017-Feb-23 19:33N 39°53' W 075°11'0 0.0
2017-Feb-23 18:33N 39°53' W 075°11'0 0.0
2017-Feb-23 17:33N 39°53' W 075°11'1 1.2
2017-Feb-23 16:33N 39°53' W 075°12'7 6.9
2017-Feb-23 15:33N 39°58' W 075°07'1 1.1
2017-Feb-23 14:33N 39°59' W 075°05'0 0.0
2017-Feb-23 13:33N 39°59' W 075°05'0 0.0
2017-Feb-23 12:33N 39°59' W 075°05'0 0.0
2017-Feb-23 11:33N 39°59' W 075°05'0 0.0
2017-Feb-23 10:33N 39°59' W 075°05'0 0.0
2017-Feb-23 09:33N 39°59' W 075°05'0 0.0
2017-Feb-23 08:33N 39°59' W 075°05'0 0.0
2017-Feb-23 07:33N 39°59' W 075°05'1 0.5
2017-Feb-23 06:33N 39°58' W 075°06'6 6.3
2017-Feb-23 05:33N 39°53' W 075°10'1 0.7
2017-Feb-23 04:33N 39°53' W 075°11'0 0.2
2017-Feb-23 03:33N 39°53' W 075°11'0 0.0
2017-Feb-23 02:33N 39°53' W 075°11'0 0.0
2017-Feb-23 01:33N 39°53' W 075°11'0 0.0
2017-Feb-23 00:33N 39°53' W 075°11'2 2.5
2017-Feb-22 23:33N 39°54' W 075°08'0 0.1
2017-Feb-22 22:33N 39°54' W 075°08'1 0.7
2017-Feb-22 21:33N 39°54' W 075°08'0 0.0
2017-Feb-22 20:33N 39°54' W 075°08'4 3.5
2017-Feb-22 19:33N 39°57' W 075°08'12 2.8
2017-Feb-22 15:29N 40°04' W 074°56'8 8.1
2017-Feb-22 14:33N 39°60' W 075°04'3 3.4
2017-Feb-22 13:33N 39°58' W 075°07'2 2.0
2017-Feb-22 12:33N 39°59' W 075°05'0 0.0
2017-Feb-22 11:33N 39°59' W 075°05'0 0.0
2017-Feb-22 10:33N 39°59' W 075°05'0 0.0
2017-Feb-22 09:33N 39°59' W 075°05'0 0.0
2017-Feb-22 08:33N 39°59' W 075°05'0 0.0
2017-Feb-22 07:33N 39°59' W 075°05'0 0.0
2017-Feb-22 06:33N 39°59' W 075°05'0 0.0
2017-Feb-22 05:33N 39°59' W 075°05'0 0.0
2017-Feb-22 04:33N 39°59' W 075°05'1 0.7
2017-Feb-22 03:33N 39°59' W 075°06'1 1.1
2017-Feb-22 02:33N 39°58' W 075°07'1 1.1
2017-Feb-22 01:33N 39°59' W 075°06'0 0.0
2017-Feb-22 00:33N 39°59' W 075°06'0 0.0
2017-Feb-21 23:33N 39°59' W 075°06'5 4.7
2017-Feb-21 22:33N 39°54' W 075°08'0 0.2
2017-Feb-21 21:33N 39°54' W 075°08'2 2.2
2017-Feb-21 20:33N 39°53' W 075°11'0 0.0
2017-Feb-21 19:33N 39°53' W 075°11'0 0.0
2017-Feb-21 18:33N 39°53' W 075°11'0 0.0
2017-Feb-21 12:14N 39°53' W 075°11'811.4
2017-Feb-21 11:34N 39°51' W 075°20'3 3.2
2017-Feb-21 10:33N 39°51' W 075°16'7 2.0
2017-Feb-21 07:18N 39°53' W 075°08'2 0.1
2017-Feb-20 06:33N 39°53' W 075°11'9 8.1
2017-Feb-20 05:26N 39°50' W 075°22'7 8.0
2017-Feb-20 04:34N 39°46' W 075°29'8 7.8
2017-Feb-20 03:33N 39°39' W 075°34'7 7.2
2017-Feb-20 02:33N 39°31' W 075°33'8 7.5
2017-Feb-20 01:29N 39°24' W 075°30'11 2.2
2017-Feb-19 20:33N 39°16' W 075°20'1211.9
2017-Feb-19 19:33N 39°25' W 075°31'1111.3
2017-Feb-19 18:33N 39°36' W 075°34'1312.6
2017-Feb-19 17:33N 39°47' W 075°27'1211.6
2017-Feb-19 16:33N 39°52' W 075°13'2 2.4
2017-Feb-19 15:33N 39°53' W 075°11'0 0.0
2017-Feb-19 14:33N 39°53' W 075°11'1 0.8
2017-Feb-19 13:33N 39°54' W 075°12'1 0.8
2017-Feb-19 12:33N 39°53' W 075°11'0 0.0
2017-Feb-19 11:33N 39°53' W 075°11'0 0.0
2017-Feb-19 10:33N 39°53' W 075°11'0 0.0
2017-Feb-19 09:33N 39°53' W 075°11'0 0.0
2017-Feb-19 08:33N 39°53' W 075°11'0 0.0
2017-Feb-19 07:33N 39°53' W 075°11'0 0.0
2017-Feb-19 06:33N 39°53' W 075°11'0 0.0
2017-Feb-19 05:33N 39°53' W 075°11'0 0.0
2017-Feb-19 04:33N 39°53' W 075°11'7 7.0
2017-Feb-19 03:33N 39°59' W 075°05'8 1.9
2017-Feb-18 23:33N 40°03' W 074°57'10 9.6
2017-Feb-18 22:33N 39°58' W 075°08'5 5.2
2017-Feb-18 21:33N 39°53' W 075°11'0 0.0
2017-Feb-18 20:33N 39°53' W 075°11'0 0.0
2017-Feb-18 19:33N 39°53' W 075°11'0 0.0
2017-Feb-18 18:33N 39°53' W 075°11'0 0.0
2017-Feb-18 17:33N 39°53' W 075°11'0 0.0
2017-Feb-18 16:33N 39°53' W 075°11'0 0.0
2017-Feb-18 15:33N 39°53' W 075°11'0 0.0
2017-Feb-18 14:33N 39°53' W 075°11'0 0.0
2017-Feb-18 13:33N 39°53' W 075°11'4 3.9
2017-Feb-18 12:33N 39°51' W 075°15'1 1.0
2017-Feb-18 11:33N 39°51' W 075°16'0 0.2
2017-Feb-18 10:32N 39°51' W 075°17'3 3.6
2017-Feb-18 09:33N 39°52' W 075°13'7 6.9
2017-Feb-18 08:33N 39°58' W 075°07'1110.6
2017-Feb-18 07:33N 40°04' W 074°56'3 0.6
2017-Feb-18 03:04N 40°05' W 074°53'3 6.1
2017-Feb-18 02:33N 40°04' W 074°56'8 8.3
2017-Feb-18 01:33N 39°59' W 075°05'1 0.9
2017-Feb-18 00:33N 39°58' W 075°06'4 4.4
2017-Feb-17 23:33N 39°54' W 075°08'2 2.3
2017-Feb-17 22:33N 39°53' W 075°11'0 0.0
2017-Feb-17 21:33N 39°53' W 075°11'0 0.0
2017-Feb-17 20:33N 39°53' W 075°11'0 0.0
2017-Feb-17 19:33N 39°53' W 075°11'0 0.0
2017-Feb-17 18:33N 39°53' W 075°11'0 0.0
2017-Feb-17 17:33N 39°53' W 075°11'0 0.0
2017-Feb-17 16:33N 39°53' W 075°11'0 0.0
2017-Feb-17 15:33N 39°53' W 075°11'0 0.0
2017-Feb-17 14:33N 39°53' W 075°11'0 0.0
2017-Feb-17 13:33N 39°53' W 075°11'  
Track history (hours):
 
Tides and Currents Weather Stations Pressure Air Temp Water Temp Dewpoint Dewpoint Depression Visibility Wind Speed Wind Dir Waves Ship Positions

Cape Cod

Owner: MORAN TOWING CORPORATION, New Canaan, CT. More information available from US FCC via Universal Licensing System and Coast Guard Vessel Documentation Center.

Last reported at 2017-Feb-27 13:33 UTC. Time now 2017-Feb-27 14:15 UTC.
Position N 39°53' W 075°11'.

Length 33 m; draft 4.8 m.

Type: Tug. MMSI: 366939770.

Date/timePositionNaut miles runAvg speedWind from/ knotsBaromVisibWave heightAir tempDewpointWater temp
2017-Feb-27 13:33N 39°53' W 075°11'0 0.0
2017-Feb-27 12:31N 39°53' W 075°11'0 0.0
2017-Feb-27 11:33N 39°53' W 075°11'7 6.6
2017-Feb-27 10:33N 39°51' W 075°19'9 8.5
2017-Feb-27 09:33N 39°46' W 075°28'1110.6
2017-Feb-27 08:33N 39°37' W 075°35'2 2.2
2017-Feb-27 07:33N 39°35' W 075°35'1 0.6
2017-Feb-27 06:33N 39°35' W 075°35'2 2.3
2017-Feb-27 05:33N 39°33' W 075°33'8 8.3
2017-Feb-27 04:33N 39°41' W 075°31'2 2.2
2017-Feb-27 03:33N 39°43' W 075°32'0 0.0
2017-Feb-27 02:33N 39°43' W 075°32'0 0.0
2017-Feb-27 01:33N 39°43' W 075°32'0 0.0
2017-Feb-27 00:33N 39°43' W 075°32'0 0.1
2017-Feb-26 23:33N 39°43' W 075°32'0 0.0
2017-Feb-26 22:33N 39°43' W 075°32'0 0.0
2017-Feb-26 21:33N 39°43' W 075°32'0 0.0
2017-Feb-26 20:33N 39°43' W 075°32'1 0.7
2017-Feb-26 19:33N 39°43' W 075°31'1 0.7
2017-Feb-26 18:33N 39°43' W 075°32'6 5.9
2017-Feb-26 17:33N 39°48' W 075°26'8 8.2
2017-Feb-26 16:32N 39°51' W 075°16'5 5.1
2017-Feb-26 15:33N 39°53' W 075°11'0 0.0
2017-Feb-26 14:33N 39°53' W 075°11'0 0.0
2017-Feb-26 13:32N 39°53' W 075°11'0 0.0
2017-Feb-26 12:33N 39°53' W 075°11'0 0.0
2017-Feb-26 11:33N 39°53' W 075°11'0 0.0
2017-Feb-26 10:33N 39°53' W 075°11'0 0.0
2017-Feb-26 09:33N 39°53' W 075°11'0 0.0
2017-Feb-26 08:33N 39°53' W 075°11'0 0.0
2017-Feb-26 07:33N 39°53' W 075°11'0 0.0
2017-Feb-26 06:33N 39°53' W 075°11'0 0.0
2017-Feb-26 05:33N 39°53' W 075°11'0 0.0
2017-Feb-26 04:33N 39°53' W 075°11'0 0.0
2017-Feb-26 03:33N 39°53' W 075°11'0 0.0
2017-Feb-26 02:33N 39°53' W 075°11'0 0.0
2017-Feb-26 01:33N 39°53' W 075°11'0 0.0
2017-Feb-26 00:33N 39°53' W 075°11'0 0.0
2017-Feb-25 23:33N 39°53' W 075°11'0 0.0
2017-Feb-25 22:33N 39°53' W 075°11'0 0.0
2017-Feb-25 21:33N 39°53' W 075°11'0 0.0
2017-Feb-25 20:33N 39°53' W 075°11'0 0.0
2017-Feb-25 19:33N 39°53' W 075°11'0 0.0
2017-Feb-25 18:33N 39°53' W 075°11'0 0.0
2017-Feb-25 17:33N 39°53' W 075°11'0 0.0
2017-Feb-25 16:33N 39°53' W 075°11'0 0.0
2017-Feb-25 15:33N 39°53' W 075°11'0 0.0
2017-Feb-25 14:33N 39°53' W 075°11'0 0.0
2017-Feb-25 13:33N 39°53' W 075°11'0 0.0
2017-Feb-25 12:33N 39°53' W 075°11'0 0.0
2017-Feb-25 11:33N 39°53' W 075°11'0 0.0
2017-Feb-25 10:33N 39°53' W 075°11'0 0.0
2017-Feb-25 09:33N 39°53' W 075°11'0 0.0
2017-Feb-25 08:33N 39°53' W 075°11'3 2.7
2017-Feb-25 07:33N 39°55' W 075°08'4 4.1
2017-Feb-25 06:33N 39°59' W 075°06'0 0.2
2017-Feb-25 05:33N 39°59' W 075°06'0 0.2
2017-Feb-25 04:33N 39°59' W 075°06'0 0.0
2017-Feb-25 03:33N 39°59' W 075°06'0 0.0
2017-Feb-25 02:33N 39°59' W 075°06'3 2.9
2017-Feb-25 01:33N 39°56' W 075°08'2 1.7
2017-Feb-25 00:33N 39°54' W 075°08'0 0.1
2017-Feb-24 23:33N 39°54' W 075°08'2 2.5
2017-Feb-24 22:33N 39°53' W 075°11'0 0.0
2017-Feb-24 21:33N 39°53' W 075°11'0 0.0
2017-Feb-24 20:33N 39°53' W 075°11'0 0.0
2017-Feb-24 19:33N 39°53' W 075°11'6 6.4
2017-Feb-24 18:33N 39°58' W 075°06'0 0.4
2017-Feb-24 17:33N 39°58' W 075°07'3 2.8
2017-Feb-24 16:33N 39°56' W 075°08'2 1.6
2017-Feb-24 15:33N 39°54' W 075°08'1 0.8
2017-Feb-24 14:33N 39°53' W 075°08'5 5.5
2017-Feb-24 13:33N 39°51' W 075°15'2 1.5
2017-Feb-24 12:33N 39°51' W 075°17'5 5.3
2017-Feb-24 11:33N 39°53' W 075°11'0 0.0
2017-Feb-24 10:33N 39°53' W 075°11'0 0.0
2017-Feb-24 09:33N 39°53' W 075°11'0 0.0
2017-Feb-24 08:33N 39°53' W 075°11'0 0.0
2017-Feb-24 07:33N 39°53' W 075°11'0 0.0
2017-Feb-24 06:33N 39°53' W 075°11'0 0.0
2017-Feb-24 05:33N 39°53' W 075°11'1 1.3
2017-Feb-24 04:33N 39°53' W 075°09'6 6.4
2017-Feb-24 03:33N 39°59' W 075°05'3 3.1
2017-Feb-24 02:33N 39°56' W 075°08'3 2.9
2017-Feb-24 01:33N 39°53' W 075°08'0 0.4
2017-Feb-24 00:33N 39°54' W 075°08'0 0.0
2017-Feb-23 23:33N 39°54' W 075°08'0 0.2
2017-Feb-23 22:33N 39°54' W 075°08'2 2.0
2017-Feb-23 21:33N 39°53' W 075°11'0 0.0
2017-Feb-23 20:32N 39°53' W 075°11'0 0.0
2017-Feb-23 19:33N 39°53' W 075°11'0 0.0
2017-Feb-23 18:33N 39°53' W 075°11'0 0.0
2017-Feb-23 17:33N 39°53' W 075°11'1 1.2
2017-Feb-23 16:33N 39°53' W 075°12'7 6.9
2017-Feb-23 15:33N 39°58' W 075°07'1 1.1
2017-Feb-23 14:33N 39°59' W 075°05'0 0.0
2017-Feb-23 13:33N 39°59' W 075°05'0 0.0
2017-Feb-23 12:33N 39°59' W 075°05'0 0.0
2017-Feb-23 11:33N 39°59' W 075°05'0 0.0
2017-Feb-23 10:33N 39°59' W 075°05'0 0.0
2017-Feb-23 09:33N 39°59' W 075°05'0 0.0
2017-Feb-23 08:33N 39°59' W 075°05'0 0.0
2017-Feb-23 07:33N 39°59' W 075°05'1 0.5
2017-Feb-23 06:33N 39°58' W 075°06'6 6.3
2017-Feb-23 05:33N 39°53' W 075°10'1 0.7
2017-Feb-23 04:33N 39°53' W 075°11'0 0.2
2017-Feb-23 03:33N 39°53' W 075°11'0 0.0
2017-Feb-23 02:33N 39°53' W 075°11'0 0.0
2017-Feb-23 01:33N 39°53' W 075°11'0 0.0
2017-Feb-23 00:33N 39°53' W 075°11'2 2.5
2017-Feb-22 23:33N 39°54' W 075°08'0 0.1
2017-Feb-22 22:33N 39°54' W 075°08'1 0.7
2017-Feb-22 21:33N 39°54' W 075°08'0 0.0
2017-Feb-22 20:33N 39°54' W 075°08'4 3.5
2017-Feb-22 19:33N 39°57' W 075°08'12 2.8
2017-Feb-22 15:29N 40°04' W 074°56'8 8.1
2017-Feb-22 14:33N 39°60' W 075°04'3 3.4
2017-Feb-22 13:33N 39°58' W 075°07'2 2.0
2017-Feb-22 12:33N 39°59' W 075°05'0 0.0
2017-Feb-22 11:33N 39°59' W 075°05'0 0.0
2017-Feb-22 10:33N 39°59' W 075°05'0 0.0
2017-Feb-22 09:33N 39°59' W 075°05'0 0.0
2017-Feb-22 08:33N 39°59' W 075°05'0 0.0
2017-Feb-22 07:33N 39°59' W 075°05'0 0.0
2017-Feb-22 06:33N 39°59' W 075°05'0 0.0
2017-Feb-22 05:33N 39°59' W 075°05'0 0.0
2017-Feb-22 04:33N 39°59' W 075°05'1 0.7
2017-Feb-22 03:33N 39°59' W 075°06'1 1.1
2017-Feb-22 02:33N 39°58' W 075°07'1 1.1
2017-Feb-22 01:33N 39°59' W 075°06'0 0.0
2017-Feb-22 00:33N 39°59' W 075°06'0 0.0
2017-Feb-21 23:33N 39°59' W 075°06'5 4.7
2017-Feb-21 22:33N 39°54' W 075°08'0 0.2
2017-Feb-21 21:33N 39°54' W 075°08'2 2.2
2017-Feb-21 20:33N 39°53' W 075°11'0 0.0
2017-Feb-21 19:33N 39°53' W 075°11'0 0.0
2017-Feb-21 18:33N 39°53' W 075°11'0 0.0
2017-Feb-21 12:14N 39°53' W 075°11'811.4
2017-Feb-21 11:34N 39°51' W 075°20'3 3.2
2017-Feb-21 10:33N 39°51' W 075°16'7 2.0
2017-Feb-21 07:18N 39°53' W 075°08'2 0.1
2017-Feb-20 06:33N 39°53' W 075°11'9 8.1
2017-Feb-20 05:26N 39°50' W 075°22'7 8.0
2017-Feb-20 04:34N 39°46' W 075°29'8 7.8
2017-Feb-20 03:33N 39°39' W 075°34'7 7.2
2017-Feb-20 02:33N 39°31' W 075°33'8 7.5
2017-Feb-20 01:29N 39°24' W 075°30'11 2.2
2017-Feb-19 20:33N 39°16' W 075°20'1211.9
2017-Feb-19 19:33N 39°25' W 075°31'1111.3
2017-Feb-19 18:33N 39°36' W 075°34'1312.6
2017-Feb-19 17:33N 39°47' W 075°27'1211.6
2017-Feb-19 16:33N 39°52' W 075°13'2 2.4
2017-Feb-19 15:33N 39°53' W 075°11'0 0.0
2017-Feb-19 14:33N 39°53' W 075°11'1 0.8
2017-Feb-19 13:33N 39°54' W 075°12'1 0.8
2017-Feb-19 12:33N 39°53' W 075°11'0 0.0
2017-Feb-19 11:33N 39°53' W 075°11'0 0.0
2017-Feb-19 10:33N 39°53' W 075°11'0 0.0
2017-Feb-19 09:33N 39°53' W 075°11'0 0.0
2017-Feb-19 08:33N 39°53' W 075°11'0 0.0
2017-Feb-19 07:33N 39°53' W 075°11'0 0.0
2017-Feb-19 06:33N 39°53' W 075°11'0 0.0
2017-Feb-19 05:33N 39°53' W 075°11'0 0.0
2017-Feb-19 04:33N 39°53' W 075°11'7 7.0
2017-Feb-19 03:33N 39°59' W 075°05'8 1.9
2017-Feb-18 23:33N 40°03' W 074°57'10 9.6
2017-Feb-18 22:33N 39°58' W 075°08'5 5.2
2017-Feb-18 21:33N 39°53' W 075°11'0 0.0
2017-Feb-18 20:33N 39°53' W 075°11'0 0.0
2017-Feb-18 19:33N 39°53' W 075°11'0 0.0
2017-Feb-18 18:33N 39°53' W 075°11'0 0.0
2017-Feb-18 17:33N 39°53' W 075°11'0 0.0
2017-Feb-18 16:33N 39°53' W 075°11'0 0.0
2017-Feb-18 15:33N 39°53' W 075°11'0 0.0
2017-Feb-18 14:33N 39°53' W 075°11'0 0.0
2017-Feb-18 13:33N 39°53' W 075°11'4 3.9
2017-Feb-18 12:33N 39°51' W 075°15'1 1.0
2017-Feb-18 11:33N 39°51' W 075°16'0 0.2
2017-Feb-18 10:32N 39°51' W 075°17'3 3.6
2017-Feb-18 09:33N 39°52' W 075°13'7 6.9
2017-Feb-18 08:33N 39°58' W 075°07'1110.6
2017-Feb-18 07:33N 40°04' W 074°56'3 0.6
2017-Feb-18 03:04N 40°05' W 074°53'3 6.1
2017-Feb-18 02:33N 40°04' W 074°56'8 8.3
2017-Feb-18 01:33N 39°59' W 075°05'1 0.9
2017-Feb-18 00:33N 39°58' W 075°06'4 4.4
2017-Feb-17 23:33N 39°54' W 075°08'2 2.3
2017-Feb-17 22:33N 39°53' W 075°11'0 0.0
2017-Feb-17 21:33N 39°53' W 075°11'0 0.0
2017-Feb-17 20:33N 39°53' W 075°11'0 0.0
2017-Feb-17 19:33N 39°53' W 075°11'0 0.0
2017-Feb-17 18:33N 39°53' W 075°11'0 0.0
2017-Feb-17 17:33N 39°53' W 075°11'0 0.0
2017-Feb-17 16:33N 39°53' W 075°11'0 0.0
2017-Feb-17 15:33N 39°53' W 075°11'0 0.0
2017-Feb-17 14:33N 39°53' W 075°11'0 0.0
2017-Feb-17 13:33N 39°53' W 075°11'  

Dump ship's entire track history